Time;durP1;ratioP1;P1;durP2;ratioP2;P2;SDS_P1;SDS_P2;PMS_P1;PMS_P2;Temp;Humidity;BMP_temperature;BMP_pressure;BME280_temperature;BME280_humidity;BME280_pressure;Samples;Min_cycle;Max_cycle;Signal;HPM_P1;HPM_P2
2021/10/18 00:01:14;;;;;;;10.63;5.32;;;;;;;;;;5970377;23;20033;-61
2021/10/18 00:03:40;;;;;;;13.45;5.90;;;;;;;;;;5972691;23;20128;-60
2021/10/18 00:06:14;;;;;;;15.13;6.40;;;;;;;;;;5970697;24;20022;-60
2021/10/18 00:08:40;;;;;;;13.05;5.60;;;;;;;;;;5969534;23;20156;-60
2021/10/18 00:11:07;;;;;;;16.15;6.45;;;;;;;;;;5970586;24;20026;-59
2021/10/18 00:13:33;;;;;;;14.52;5.53;;;;;;;;;;5972030;23;20026;-60
2021/10/18 00:16:01;;;;;;;13.13;5.68;;;;;;;;;;5972894;24;20041;-59
2021/10/18 00:18:28;;;;;;;15.82;5.82;;;;;;;;;;5969950;24;20046;-59
2021/10/18 00:20:54;;;;;;;19.80;6.10;;;;;;;;;;5996754;23;20033;-60
2021/10/18 00:23:21;;;;;;;11.60;5.70;;;;;;;;;;5970411;24;20045;-59
2021/10/18 00:25:47;;;;;;;18.20;5.57;;;;;;;;;;5972672;24;20037;-59
2021/10/18 00:28:15;;;;;;;15.48;6.22;;;;;;;;;;5985030;23;20022;-59
2021/10/18 00:30:41;;;;;;;16.70;6.07;;;;;;;;;;5971982;24;20104;-60
2021/10/18 00:33:09;;;;;;;12.80;5.90;;;;;;;;;;5967515;24;20104;-60
2021/10/18 00:35:36;;;;;;;15.10;6.37;;;;;;;;;;5968308;23;20101;-59
2021/10/18 00:38:02;;;;;;;16.85;6.07;;;;;;;;;;5972849;23;20049;-59
2021/10/18 00:40:29;;;;;;;16.27;6.38;;;;;;;;;;5998178;23;20037;-58
2021/10/18 00:42:56;;;;;;;11.82;6.03;;;;;;;;;;5993409;23;20053;-61
2021/10/18 00:45:22;;;;;;;13.98;6.10;;;;;;;;;;6017999;23;20050;-59
2021/10/18 00:47:51;;;;;;;13.38;5.65;;;;;;;;;;6017447;23;20033;-60
2021/10/18 00:50:20;;;;;;;13.32;6.35;;;;;;;;;;5970006;23;20026;-59
2021/10/18 00:52:46;;;;;;;14.38;6.47;;;;;;;;;;5970559;24;20029;-59
2021/10/18 00:55:15;;;;;;;15.88;6.60;;;;;;;;;;5992123;23;20022;-59
2021/10/18 00:57:43;;;;;;;16.45;6.10;;;;;;;;;;5997393;23;20022;-59
2021/10/18 01:00:10;;;;;;;14.15;6.57;;;;;;;;;;5967718;24;20029;-60
2021/10/18 01:02:37;;;;;;;14.55;6.30;;;;;;;;;;5996113;23;20030;-60
2021/10/18 01:05:04;;;;;;;14.02;6.80;;;;;;;;;;5968234;23;20049;-60
2021/10/18 01:07:34;;;;;;;16.70;5.75;;;;;;;;;;5960879;24;20054;-60
2021/10/18 01:10:00;;;;;;;15.77;6.63;;;;;;;;;;5993166;23;20034;-59
2021/10/18 01:12:27;;;;;;;16.83;6.35;;;;;;;;;;5968129;24;20031;-59
2021/10/18 01:14:53;;;;;;;14.40;7.20;;;;;;;;;;5954676;24;20050;-59
2021/10/18 01:17:35;;;;;;;15.35;7.45;;;;;;;;;;5974825;24;20028;-59
2021/10/18 01:20:01;;;;;;;13.13;6.00;;;;;;;;;;5966364;23;20059;-60
2021/10/18 01:22:29;;;;;;;16.20;6.32;;;;;;;;;;5953968;24;20033;-61
2021/10/18 01:24:56;;;;;;;15.43;7.03;;;;;;;;;;5968337;24;20170;-61
2021/10/18 01:27:23;;;;;;;15.82;7.63;;;;;;;;;;5972150;24;20265;-59
2021/10/18 01:29:50;;;;;;;19.10;8.02;;;;;;;;;;5968797;24;20026;-59
2021/10/18 01:32:16;;;;;;;15.10;6.97;;;;;;;;;;5974737;24;20054;-58
2021/10/18 01:34:43;;;;;;;19.90;7.53;;;;;;;;;;5972575;24;20116;-59
2021/10/18 01:37:10;;;;;;;13.02;7.28;;;;;;;;;;5994914;24;20104;-58
2021/10/18 01:39:38;;;;;;;14.75;7.07;;;;;;;;;;5996810;23;20025;-58
2021/10/18 01:42:04;;;;;;;15.70;7.20;;;;;;;;;;5962934;24;20062;-59
2021/10/18 01:44:31;;;;;;;21.95;7.10;;;;;;;;;;5969164;24;20122;-59
2021/10/18 01:46:59;;;;;;;17.00;7.05;;;;;;;;;;5967567;24;20168;-59
2021/10/18 01:49:25;;;;;;;17.35;7.43;;;;;;;;;;5969934;23;20030;-58
2021/10/18 01:51:52;;;;;;;18.63;7.97;;;;;;;;;;5990986;23;20034;-59
2021/10/18 01:54:18;;;;;;;22.30;8.13;;;;;;;;;;5972926;24;20021;-59
2021/10/18 01:56:47;;;;;;;16.02;7.43;;;;;;;;;;5971160;24;20041;-59
2021/10/18 01:59:13;;;;;;;16.05;7.35;;;;;;;;;;6019481;23;20030;-59
2021/10/18 02:01:39;;;;;;;16.42;8.15;;;;;;;;;;5967509;23;20038;-59
2021/10/18 02:04:06;;;;;;;18.70;8.18;;;;;;;;;;5998921;23;20026;-59
2021/10/18 02:06:38;;;;;;;17.40;7.60;;;;;;;;;;5964056;24;20113;-58
2021/10/18 02:09:04;;;;;;;17.00;6.68;;;;;;;;;;5968408;24;20038;-59
2021/10/18 02:11:31;;;;;;;15.10;7.60;;;;;;;;;;5965928;24;20053;-58
2021/10/18 02:13:58;;;;;;;20.05;7.60;;;;;;;;;;5967695;24;20022;-59
2021/10/18 02:16:25;;;;;;;16.80;7.23;;;;;;;;;;5958112;24;20038;-58
2021/10/18 02:18:51;;;;;;;17.75;7.03;;;;;;;;;;5993861;23;20058;-59
2021/10/18 02:21:18;;;;;;;16.52;7.80;;;;;;;;;;5997527;23;20504;-59
2021/10/18 02:23:44;;;;;;;16.73;8.30;;;;;;;;;;5967236;24;20037;-59
2021/10/18 02:26:12;;;;;;;21.50;7.82;;;;;;;;;;6015434;23;20041;-59
2021/10/18 02:28:39;;;;;;;19.77;8.38;;;;;;;;;;5987882;23;20076;-60
2021/10/18 02:31:07;;;;;;;16.20;7.93;;;;;;;;;;5960879;24;20026;-59
2021/10/18 02:33:33;;;;;;;15.90;8.13;;;;;;;;;;5993587;23;20084;-61
2021/10/18 02:35:59;;;;;;;19.92;7.38;;;;;;;;;;6020387;23;20022;-59
2021/10/18 02:38:26;;;;;;;22.52;7.75;;;;;;;;;;6012792;23;20030;-60
2021/10/18 02:40:52;;;;;;;17.45;7.88;;;;;;;;;;6020195;23;20128;-59
2021/10/18 02:43:19;;;;;;;19.40;7.07;;;;;;;;;;6008699;23;20109;-61
2021/10/18 02:45:45;;;;;;;14.00;7.32;;;;;;;;;;5999500;23;20097;-59
2021/10/18 02:48:13;;;;;;;16.05;8.07;;;;;;;;;;5970046;24;20026;-61
2021/10/18 02:50:40;;;;;;;17.20;8.48;;;;;;;;;;5971189;24;20052;-60
2021/10/18 02:53:07;;;;;;;16.02;7.13;;;;;;;;;;5967341;23;20097;-60
2021/10/18 02:55:33;;;;;;;15.00;7.38;;;;;;;;;;5966872;24;20030;-60
2021/10/18 02:58:00;;;;;;;18.58;7.82;;;;;;;;;;5963565;23;20038;-59
2021/10/18 03:00:26;;;;;;;17.40;7.85;;;;;;;;;;5996679;23;20036;-60
2021/10/18 03:02:53;;;;;;;17.08;7.35;;;;;;;;;;6018363;23;20137;-62
2021/10/18 03:05:21;;;;;;;17.35;8.20;;;;;;;;;;6016976;23;20300;-61
2021/10/18 03:07:51;;;;;;;14.73;7.57;;;;;;;;;;6019264;23;20022;-61
2021/10/18 03:10:18;;;;;;;16.45;7.20;;;;;;;;;;5966205;23;20048;-62
2021/10/18 03:12:44;;;;;;;16.92;7.05;;;;;;;;;;5947345;24;20070;-61
2021/10/18 03:15:11;;;;;;;23.80;7.53;;;;;;;;;;5955557;23;20030;-59
2021/10/18 03:17:38;;;;;;;16.05;7.50;;;;;;;;;;5963990;23;20034;-61
2021/10/18 03:20:05;;;;;;;18.98;7.78;;;;;;;;;;5963266;23;20034;-58
2021/10/18 03:22:33;;;;;;;15.00;7.63;;;;;;;;;;5989812;23;20026;-58
2021/10/18 03:25:00;;;;;;;25.13;7.37;;;;;;;;;;5967639;23;20030;-60
2021/10/18 03:27:28;;;;;;;14.95;7.82;;;;;;;;;;6018225;23;20034;-59
2021/10/18 03:29:54;;;;;;;14.73;8.13;;;;;;;;;;5962597;24;20031;-59
2021/10/18 03:32:21;;;;;;;18.80;7.63;;;;;;;;;;5958156;23;20054;-59
2021/10/18 03:34:47;;;;;;;15.93;8.15;;;;;;;;;;5968215;23;20023;-59
2021/10/18 03:37:25;;;;;;;14.93;7.45;;;;;;;;;;5996452;23;20030;-58
2021/10/18 03:39:53;;;;;;;18.47;8.40;;;;;;;;;;5991019;23;20033;-60
2021/10/18 03:42:19;;;;;;;19.97;7.87;;;;;;;;;;5969140;24;20031;-59
2021/10/18 03:44:46;;;;;;;17.33;7.95;;;;;;;;;;5967659;24;20283;-59
2021/10/18 03:47:21;;;;;;;16.20;7.97;;;;;;;;;;5996117;23;20033;-59
2021/10/18 03:49:47;;;;;;;16.90;7.28;;;;;;;;;;5943748;24;20026;-60
2021/10/18 03:52:15;;;;;;;16.73;7.70;;;;;;;;;;5979054;23;20030;-60
2021/10/18 03:54:41;;;;;;;17.90;7.30;;;;;;;;;;5968774;24;20043;-58
2021/10/18 03:57:11;;;;;;;15.20;7.50;;;;;;;;;;5943712;24;20046;-61
2021/10/18 03:59:37;;;;;;;14.63;7.82;;;;;;;;;;5972811;24;20037;-59
2021/10/18 04:02:06;;;;;;;19.27;7.88;;;;;;;;;;5968605;24;20058;-58
2021/10/18 04:04:32;;;;;;;13.82;7.07;;;;;;;;;;5973563;24;20043;-59
2021/10/18 04:07:29;;;;;;;17.92;7.68;;;;;;;;;;5969593;23;20034;-59
2021/10/18 04:09:55;;;;;;;15.40;7.55;;;;;;;;;;5887495;24;20027;-61
2021/10/18 04:12:23;;;;;;;15.02;7.38;;;;;;;;;;5942980;24;20109;-60
2021/10/18 04:14:50;;;;;;;17.93;7.83;;;;;;;;;;5969777;24;20030;-60
2021/10/18 04:17:35;;;;;;;15.82;7.43;;;;;;;;;;5969298;24;20088;-60
2021/10/18 04:20:01;;;;;;;16.63;7.80;;;;;;;;;;5888937;24;20037;-60
2021/10/18 04:22:28;;;;;;;18.48;7.72;;;;;;;;;;5970341;24;20035;-62
2021/10/18 04:24:54;;;;;;;16.88;7.57;;;;;;;;;;5970918;24;20035;-61
2021/10/18 04:27:23;;;;;;;14.50;6.72;;;;;;;;;;5963567;24;20038;-60
2021/10/18 04:29:49;;;;;;;17.13;6.60;;;;;;;;;;5969886;23;20038;-60
2021/10/18 04:32:16;;;;;;;19.42;8.02;;;;;;;;;;5956527;24;20037;-59
2021/10/18 04:34:42;;;;;;;18.38;7.38;;;;;;;;;;5967221;23;20108;-61
2021/10/18 04:37:12;;;;;;;15.43;7.18;;;;;;;;;;5954998;24;20101;-60
2021/10/18 04:39:39;;;;;;;20.50;7.32;;;;;;;;;;5971646;23;20030;-58
2021/10/18 04:42:05;;;;;;;15.25;7.30;;;;;;;;;;5967548;23;20046;-59
2021/10/18 04:44:33;;;;;;;14.90;6.90;;;;;;;;;;5957349;23;20038;-59
2021/10/18 04:47:00;;;;;;;14.98;7.45;;;;;;;;;;5967116;24;20040;-58
2021/10/18 04:49:26;;;;;;;17.13;7.13;;;;;;;;;;5957845;23;20060;-58
2021/10/18 04:51:53;;;;;;;16.42;7.53;;;;;;;;;;5968207;24;20034;-58
2021/10/18 04:54:19;;;;;;;19.85;7.32;;;;;;;;;;5964011;24;20037;-59
2021/10/18 04:57:02;;;;;;;15.02;7.00;;;;;;;;;;5972225;24;20026;-58
2021/10/18 04:59:29;;;;;;;16.40;7.57;;;;;;;;;;5964215;24;20038;-58
2021/10/18 05:01:57;;;;;;;19.80;8.05;;;;;;;;;;5969943;24;20026;-58
2021/10/18 05:04:23;;;;;;;16.53;8.03;;;;;;;;;;5964099;24;20053;-60
2021/10/18 05:06:52;;;;;;;16.10;8.00;;;;;;;;;;5973763;24;20049;-58
2021/10/18 05:09:18;;;;;;;;;;;;;;;;;;5965461;24;20038;-59
2021/10/18 05:11:45;;;;;;;15.00;6.70;;;;;;;;;;5974754;23;20001;-58
2021/10/18 05:14:14;;;;;;;15.20;7.07;;;;;;;;;;5971893;24;20026;-58
2021/10/18 05:16:41;;;;;;;15.43;7.68;;;;;;;;;;5997033;23;20041;-59
2021/10/18 05:19:09;;;;;;;16.73;7.20;;;;;;;;;;5964141;23;20108;-58
2021/10/18 05:21:35;;;;;;;15.00;7.50;;;;;;;;;;5968596;24;20018;-58
2021/10/18 05:24:02;;;;;;;15.95;7.53;;;;;;;;;;5971198;24;20026;-59
2021/10/18 05:26:33;;;;;;;19.23;8.00;;;;;;;;;;5974183;24;20166;-59
2021/10/18 05:29:00;;;;;;;14.82;7.25;;;;;;;;;;5968749;24;20157;-59
2021/10/18 05:31:26;;;;;;;14.38;7.60;;;;;;;;;;5998447;23;20030;-59
2021/10/18 05:33:52;;;;;;;17.55;7.95;;;;;;;;;;5998118;23;20086;-59
2021/10/18 05:36:25;;;;;;;18.00;9.13;;;;;;;;;;5989338;23;20042;-58
2021/10/18 05:38:52;;;;;;;20.50;9.77;;;;;;;;;;5972800;23;20044;-59
2021/10/18 05:41:18;;;;;;;17.13;9.45;;;;;;;;;;5964284;24;20113;-58
2021/10/18 05:43:45;;;;;;;20.25;8.55;;;;;;;;;;5969983;23;20030;-58
2021/10/18 05:46:12;;;;;;;16.33;8.27;;;;;;;;;;5987740;23;20026;-59
2021/10/18 05:48:39;;;;;;;15.93;8.53;;;;;;;;;;5993849;23;20034;-59
2021/10/18 05:51:05;;;;;;;18.75;8.32;;;;;;;;;;5965833;23;20050;-59
2021/10/18 05:53:33;;;;;;;16.77;8.50;;;;;;;;;;5971309;24;20026;-59
2021/10/18 05:56:00;;;;;;;21.40;8.55;;;;;;;;;;5959696;24;20119;-59
2021/10/18 05:58:26;;;;;;;18.08;8.98;;;;;;;;;;5979314;23;20022;-59
2021/10/18 06:00:53;;;;;;;21.30;8.38;;;;;;;;;;5987577;23;20112;-58
2021/10/18 06:03:19;;;;;;;19.23;8.32;;;;;;;;;;5979476;23;20089;-58
2021/10/18 06:05:46;;;;;;;16.35;8.27;;;;;;;;;;5950801;24;20026;-60
2021/10/18 06:08:13;;;;;;;15.57;8.05;;;;;;;;;;5986641;23;20353;-57
2021/10/18 06:10:42;;;;;;;18.40;8.45;;;;;;;;;;5961162;23;20034;-57
2021/10/18 06:13:09;;;;;;;17.13;7.60;;;;;;;;;;5967821;24;20100;-58
2021/10/18 06:15:35;;;;;;;17.25;8.07;;;;;;;;;;5971492;24;20099;-58
2021/10/18 06:18:09;;;;;;;18.90;8.57;;;;;;;;;;5962179;23;20043;-59
2021/10/18 06:20:36;;;;;;;18.73;8.13;;;;;;;;;;5994739;23;20066;-58
2021/10/18 06:23:02;;;;;;;16.40;8.23;;;;;;;;;;5958973;24;20452;-58
2021/10/18 06:25:29;;;;;;;21.88;10.38;;;;;;;;;;6020100;23;20025;-57
2021/10/18 06:27:58;;;;;;;21.70;9.25;;;;;;;;;;5968853;24;20030;-57
2021/10/18 06:30:26;;;;;;;21.40;9.60;;;;;;;;;;5969408;24;20041;-58
2021/10/18 06:32:52;;;;;;;24.33;9.53;;;;;;;;;;5967579;24;20035;-58
2021/10/18 06:35:19;;;;;;;17.63;8.45;;;;;;;;;;5993212;23;20132;-58
2021/10/18 06:37:46;;;;;;;19.55;8.73;;;;;;;;;;6003268;23;20030;-58
2021/10/18 06:40:12;;;;;;;20.10;8.48;;;;;;;;;;6020843;23;20116;-58
2021/10/18 06:42:39;;;;;;;23.45;8.50;;;;;;;;;;6002023;23;20042;-58
2021/10/18 06:45:08;;;;;;;18.90;8.60;;;;;;;;;;5998929;23;20030;-58
2021/10/18 06:47:35;;;;;;;22.77;8.52;;;;;;;;;;5969698;24;20324;-58
2021/10/18 06:50:01;;;;;;;22.98;10.18;;;;;;;;;;5997344;23;20046;-58
2021/10/18 06:52:31;;;;;;;23.35;10.00;;;;;;;;;;5969397;23;20038;-58
2021/10/18 06:54:59;;;;;;;25.40;9.73;;;;;;;;;;5994130;23;20034;-58
2021/10/18 06:57:31;;;;;;;24.20;9.02;;;;;;;;;;5968100;23;20026;-58
2021/10/18 06:59:59;;;;;;;19.40;9.27;;;;;;;;;;5971107;23;20081;-58
2021/10/18 07:02:27;;;;;;;21.45;10.15;;;;;;;;;;5971661;23;20044;-58
2021/10/18 07:04:53;;;;;;;21.45;9.07;;;;;;;;;;5940828;23;20046;-58
2021/10/18 07:07:29;;;;;;;17.10;9.25;;;;;;;;;;5935772;23;20026;-58
2021/10/18 07:10:00;;;;;;;20.77;9.18;;;;;;;;;;5941803;24;20054;-59
2021/10/18 07:12:27;;;;;;;20.92;9.70;;;;;;;;;;5920438;24;20418;-59
2021/10/18 07:14:53;;;;;;;18.15;9.05;;;;;;;;;;5942032;24;20165;-58
2021/10/18 07:17:26;;;;;;;22.55;9.82;;;;;;;;;;5944576;24;20085;-58
2021/10/18 07:19:54;;;;;;;19.08;8.60;;;;;;;;;;5942839;24;20027;-58
2021/10/18 07:22:25;;;;;;;23.60;8.90;;;;;;;;;;5944962;24;20067;-60
2021/10/18 07:24:51;;;;;;;21.15;9.55;;;;;;;;;;5939875;24;20038;-58
2021/10/18 07:27:19;;;;;;;24.20;10.20;;;;;;;;;;5942913;24;20082;-58
2021/10/18 07:29:46;;;;;;;21.25;9.60;;;;;;;;;;5966802;24;20038;-58
2021/10/18 07:32:12;;;;;;;19.05;8.60;;;;;;;;;;5945473;24;20089;-58
2021/10/18 07:34:40;;;;;;;20.55;9.05;;;;;;;;;;5939040;24;20093;-57
2021/10/18 07:37:11;;;;;;;22.80;9.77;;;;;;;;;;5945025;24;20044;-58
2021/10/18 07:39:38;;;;;;;17.77;8.07;;;;;;;;;;5942078;24;20074;-58
2021/10/18 07:42:06;;;;;;;23.88;10.65;;;;;;;;;;5945517;24;20089;-58
2021/10/18 07:44:33;;;;;;;19.98;9.20;;;;;;;;;;5943413;24;20039;-59
2021/10/18 07:47:00;;;;;;;19.90;9.10;;;;;;;;;;5943943;24;20030;-58
2021/10/18 07:49:28;;;;;;;22.35;9.07;;;;;;;;;;5943052;24;20018;-58
2021/10/18 07:51:55;;;;;;;19.23;10.07;;;;;;;;;;5945385;24;20031;-58
2021/10/18 07:54:27;;;;;;;23.77;9.60;;;;;;;;;;5945587;24;20046;-58
2021/10/18 07:56:57;;;;;;;27.85;9.52;;;;;;;;;;5942162;24;20034;-58
2021/10/18 07:59:24;;;;;;;22.20;9.40;;;;;;;;;;5944773;24;20026;-57
2021/10/18 08:01:50;;;;;;;22.60;9.52;;;;;;;;;;5943588;24;20512;-58
2021/10/18 08:04:17;;;;;;;25.92;10.32;;;;;;;;;;5964297;24;20111;-57
2021/10/18 08:06:54;;;;;;;18.33;8.60;;;;;;;;;;5995042;23;20081;-58
2021/10/18 08:09:23;;;;;;;18.95;8.98;;;;;;;;;;5972163;24;20034;-58
2021/10/18 08:11:50;;;;;;;27.58;9.40;;;;;;;;;;5956608;24;20113;-58
2021/10/18 08:14:18;;;;;;;24.20;8.90;;;;;;;;;;5944902;24;20023;-60
2021/10/18 08:16:45;;;;;;;22.80;10.05;;;;;;;;;;5957891;24;20034;-58
2021/10/18 08:19:11;;;;;;;18.80;9.35;;;;;;;;;;5972796;24;20026;-59
2021/10/18 08:21:38;;;;;;;24.92;9.65;;;;;;;;;;5970019;24;20029;-58
2021/10/18 08:24:05;;;;;;;23.35;9.35;;;;;;;;;;5998671;23;20058;-58
2021/10/18 08:26:33;;;;;;;27.17;10.40;;;;;;;;;;5995474;23;20034;-59
2021/10/18 08:29:01;;;;;;;23.65;10.48;;;;;;;;;;5971104;24;20038;-59
2021/10/18 08:31:28;;;;;;;21.53;9.17;;;;;;;;;;5971975;24;20034;-59
2021/10/18 08:33:54;;;;;;;22.50;9.63;;;;;;;;;;5972588;24;20034;-58
2021/10/18 08:36:36;;;;;;;21.77;9.57;;;;;;;;;;5971603;23;20014;-59
2021/10/18 08:41:45;;;;;;;20.73;9.60;;;;;;;;;;5969828;23;20036;-59
2021/10/18 08:44:16;;;;;;;20.02;9.35;;;;;;;;;;5972308;24;20021;-60
2021/10/18 08:46:43;;;;;;;20.67;9.55;;;;;;;;;;5959374;23;20028;-59
2021/10/18 08:49:10;;;;;;;18.45;8.35;;;;;;;;;;5997660;23;20463;-59
2021/10/18 08:51:36;;;;;;;23.13;9.90;;;;;;;;;;5973652;23;20112;-59
2021/10/18 08:54:07;;;;;;;18.50;8.63;;;;;;;;;;5969299;23;20034;-58
2021/10/18 08:56:34;;;;;;;17.45;8.98;;;;;;;;;;5971813;23;20030;-58
2021/10/18 08:59:00;;;;;;;22.58;9.30;;;;;;;;;;5968262;24;20026;-58
2021/10/18 09:01:41;;;;;;;21.40;10.48;;;;;;;;;;5972983;24;20112;-58
2021/10/18 09:04:11;;;;;;;19.67;8.50;;;;;;;;;;5970252;23;20086;-59
2021/10/18 09:06:47;;;;;;;22.33;8.73;;;;;;;;;;5972810;24;20034;-58
2021/10/18 09:09:14;;;;;;;19.73;9.25;;;;;;;;;;5995239;23;20042;-59
2021/10/18 09:11:40;;;;;;;25.17;9.77;;;;;;;;;;5972897;24;20026;-58
2021/10/18 09:14:07;;;;;;;23.17;8.88;;;;;;;;;;5967757;24;20026;-59
2021/10/18 09:16:43;;;;;;;22.90;10.98;;;;;;;;;;5997865;23;20107;-59
2021/10/18 09:19:11;;;;;;;23.10;10.45;;;;;;;;;;5968387;24;20049;-59
2021/10/18 09:21:38;;;;;;;26.90;9.73;;;;;;;;;;5969054;24;20046;-59
2021/10/18 09:24:06;;;;;;;21.95;9.65;;;;;;;;;;5968702;24;20102;-58
2021/10/18 09:26:36;;;;;;;21.20;9.57;;;;;;;;;;5973969;23;20034;-58
2021/10/18 09:29:03;;;;;;;21.85;10.63;;;;;;;;;;5969989;24;20030;-59
2021/10/18 09:31:30;;;;;;;21.67;10.07;;;;;;;;;;5960548;24;20014;-58
2021/10/18 09:34:05;;;;;;;18.95;8.00;;;;;;;;;;5971131;24;20081;-59
2021/10/18 09:36:34;;;;;;;22.40;9.65;;;;;;;;;;6018500;23;20034;-59
2021/10/18 09:39:00;;;;;;;;;;;;;;;;;;5970153;23;20050;-58
2021/10/18 09:41:26;;;;;;;20.77;9.88;;;;;;;;;;5995720;24;19917;-59
2021/10/18 09:43:55;;;;;;;24.95;10.45;;;;;;;;;;5968194;23;20244;-59
2021/10/18 09:46:37;;;;;;;25.63;9.30;;;;;;;;;;6025620;23;20025;-59
2021/10/18 10:53:11;;;;;;;23.98;8.90;;;;;;;;;;5993881;23;20085;-57
2021/10/18 10:55:39;;;;;;;25.38;9.02;;;;;;;;;;5972673;23;20053;-57
2021/10/18 10:58:26;;;;;;;20.95;9.82;;;;;;;;;;6003258;23;20120;-56
2021/10/18 11:00:52;;;;;;;24.05;10.85;;;;;;;;;;5973135;24;20041;-56
2021/10/18 11:03:38;;;;;;;19.02;9.00;;;;;;;;;;5967606;24;20018;-54
2021/10/18 11:06:07;;;;;;;22.25;9.93;;;;;;;;;;5996521;23;20065;-57
2021/10/18 11:08:34;;;;;;;18.67;9.43;;;;;;;;;;5954217;24;20042;-56
2021/10/18 11:11:08;;;;;;;19.38;9.60;;;;;;;;;;5949055;24;20063;-57
2021/10/18 11:13:40;;;;;;;20.95;10.63;;;;;;;;;;5967645;24;20148;-57
2021/10/18 11:16:07;;;;;;;19.02;8.98;;;;;;;;;;5967840;24;20038;-57
2021/10/18 11:18:33;;;;;;;19.63;9.23;;;;;;;;;;5992692;24;20088;-56
2021/10/18 11:21:11;;;;;;;23.58;10.07;;;;;;;;;;5970480;24;20104;-57
2021/10/18 11:23:52;;;;;;;24.02;9.68;;;;;;;;;;5966668;24;20065;-55
2021/10/18 11:26:25;;;;;;;19.80;9.30;;;;;;;;;;5973021;24;20033;-56
2021/10/18 11:28:52;;;;;;;20.50;8.90;;;;;;;;;;5964226;24;20026;-56
2021/10/18 11:31:19;;;;;;;20.90;9.65;;;;;;;;;;5969161;24;20022;-56
2021/10/18 11:34:00;;;;;;;20.05;9.63;;;;;;;;;;5946951;24;20070;-56
2021/10/18 11:36:28;;;;;;;21.40;10.07;;;;;;;;;;5973035;24;20098;-57
2021/10/18 11:39:06;;;;;;;22.50;10.02;;;;;;;;;;5969399;24;20062;-56
2021/10/18 11:41:53;;;;;;;18.88;8.90;;;;;;;;;;5995616;23;20026;-57
2021/10/18 11:44:19;;;;;;;17.73;8.43;;;;;;;;;;5990756;23;20035;-56
2021/10/18 11:46:49;;;;;;;17.88;8.55;;;;;;;;;;5973447;24;20049;-56
2021/10/18 11:49:15;;;;;;;18.10;8.43;;;;;;;;;;5968270;24;20039;-58
2021/10/18 11:51:42;;;;;;;17.98;8.48;;;;;;;;;;6019874;23;20038;-56
2021/10/18 11:54:09;;;;;;;20.00;9.20;;;;;;;;;;5968115;23;20052;-56
2021/10/18 11:56:37;;;;;;;18.73;9.10;;;;;;;;;;5970158;24;20022;-57
2021/10/18 11:59:05;;;;;;;16.20;7.78;;;;;;;;;;5969460;24;20033;-57
2021/10/18 12:01:34;;;;;;;26.10;9.60;;;;;;;;;;5999930;23;20026;-56
2021/10/18 12:04:00;;;;;;;19.88;8.85;;;;;;;;;;5998762;23;20057;-56
2021/10/18 12:06:32;;;;;;;19.73;7.75;;;;;;;;;;5971233;23;20119;-57
2021/10/18 12:09:00;;;;;;;18.92;8.77;;;;;;;;;;5973255;24;20033;-57
2021/10/18 12:11:27;;;;;;;18.42;9.40;;;;;;;;;;5970742;23;20040;-57
2021/10/18 12:13:55;;;;;;;18.27;8.38;;;;;;;;;;5970218;23;20038;-57
2021/10/18 12:16:24;;;;;;;19.37;8.07;;;;;;;;;;5990820;23;20054;-56
2021/10/18 12:18:50;;;;;;;;;;;;;;;;;;6018724;23;20030;-57
2021/10/18 12:21:20;;;;;;;16.38;7.85;;;;;;;;;;5950340;24;19924;-57
2021/10/18 12:23:48;;;;;;;21.50;9.38;;;;;;;;;;5970887;24;20018;-57
2021/10/18 12:26:15;;;;;;;24.60;9.17;;;;;;;;;;5954609;24;20027;-56
2021/10/18 12:28:46;;;;;;;21.52;8.52;;;;;;;;;;5966262;24;20256;-57
2021/10/18 12:31:27;;;;;;;16.50;8.23;;;;;;;;;;5946613;24;20038;-58
2021/10/18 12:34:07;;;;;;;22.10;9.45;;;;;;;;;;5966942;24;20043;-57
2021/10/18 12:36:46;;;;;;;22.80;8.90;;;;;;;;;;5965598;24;20074;-57
2021/10/18 12:39:13;;;;;;;19.83;8.73;;;;;;;;;;6016948;23;20036;-57
2021/10/18 12:41:41;;;;;;;18.08;8.63;;;;;;;;;;5965112;24;20034;-57
2021/10/18 12:44:11;;;;;;;24.50;9.38;;;;;;;;;;5971113;24;20042;-59
2021/10/18 12:46:40;;;;;;;21.30;10.50;;;;;;;;;;5959341;24;20036;-57
2021/10/18 12:49:08;;;;;;;15.95;8.50;;;;;;;;;;5942366;24;20026;-57
2021/10/18 12:51:35;;;;;;;21.45;8.63;;;;;;;;;;5941956;24;20049;-57
2021/10/18 12:54:21;;;;;;;21.20;8.25;;;;;;;;;;5992491;23;20108;-57
2021/10/18 12:57:00;;;;;;;18.52;8.50;;;;;;;;;;5966597;24;20138;-57
2021/10/18 12:59:27;;;;;;;20.73;8.57;;;;;;;;;;5969585;24;20076;-57
2021/10/18 13:02:12;;;;;;;21.42;9.07;;;;;;;;;;5972019;23;20045;-57
2021/10/18 13:04:40;;;;;;;20.20;8.75;;;;;;;;;;5947321;24;20154;-57
2021/10/18 13:07:09;;;;;;;20.40;9.67;;;;;;;;;;5938719;24;20042;-57
2021/10/18 13:09:36;;;;;;;19.55;9.10;;;;;;;;;;5942955;24;20346;-57
2021/10/18 13:12:02;;;;;;;20.52;9.38;;;;;;;;;;5923907;24;20257;-58
2021/10/18 13:14:28;;;;;;;17.10;8.38;;;;;;;;;;5940577;24;20034;-58
2021/10/18 13:16:55;;;;;;;22.08;8.85;;;;;;;;;;5941506;24;20058;-57
2021/10/18 13:19:21;;;;;;;19.30;8.75;;;;;;;;;;5963811;24;20031;-57
2021/10/18 13:21:50;;;;;;;18.90;9.20;;;;;;;;;;5966204;24;20089;-58
2021/10/18 13:24:17;;;;;;;20.98;9.27;;;;;;;;;;5963177;24;20054;-61
2021/10/18 13:26:45;;;;;;;20.58;9.63;;;;;;;;;;5941321;24;20058;-58
2021/10/18 13:29:11;;;;;;;18.00;9.03;;;;;;;;;;5940002;24;20107;-57
2021/10/18 13:31:38;;;;;;;19.65;8.25;;;;;;;;;;5991009;23;20049;-57
2021/10/18 13:34:04;;;;;;;21.67;9.20;;;;;;;;;;5937610;24;20027;-57
2021/10/18 13:36:32;;;;;;;19.73;8.57;;;;;;;;;;5943099;24;20042;-58
2021/10/18 13:39:01;;;;;;;21.05;9.07;;;;;;;;;;5955228;24;20030;-57
2021/10/18 13:41:28;;;;;;;19.25;8.52;;;;;;;;;;5941279;24;20097;-58
2021/10/18 13:43:54;;;;;;;21.15;8.68;;;;;;;;;;5933867;24;20054;-64
2021/10/18 13:46:21;;;;;;;20.88;9.23;;;;;;;;;;5966471;24;20034;-62
2021/10/18 13:48:48;;;;;;;19.38;8.73;;;;;;;;;;5962936;24;20027;-57
2021/10/18 13:51:14;;;;;;;17.48;8.48;;;;;;;;;;5967058;24;20034;-58
2021/10/18 13:53:42;;;;;;;17.23;8.48;;;;;;;;;;5962735;24;20121;-58
2021/10/18 13:56:13;;;;;;;19.05;9.38;;;;;;;;;;5944686;24;20030;-58
2021/10/18 13:58:40;;;;;;;21.08;9.20;;;;;;;;;;5967897;24;20026;-58
2021/10/18 14:01:06;;;;;;;22.00;8.95;;;;;;;;;;5944041;24;20040;-62
2021/10/18 14:03:33;;;;;;;22.08;9.55;;;;;;;;;;6002840;23;20050;-58
2021/10/18 14:05:59;;;;;;;17.58;8.95;;;;;;;;;;5991484;23;20036;-58
2021/10/18 14:08:26;;;;;;;18.25;8.95;;;;;;;;;;5947676;24;20052;-58
2021/10/18 14:10:53;;;;;;;19.73;9.05;;;;;;;;;;5964895;24;20038;-58
2021/10/18 14:13:21;;;;;;;29.85;9.85;;;;;;;;;;5967998;24;20050;-58
2021/10/18 14:15:47;;;;;;;25.02;9.40;;;;;;;;;;5962649;24;20022;-58
2021/10/18 14:18:14;;;;;;;21.10;8.57;;;;;;;;;;5964450;24;20121;-58
2021/10/18 14:20:40;;;;;;;21.92;9.02;;;;;;;;;;5966678;24;20053;-58
2021/10/18 14:23:07;;;;;;;18.30;8.63;;;;;;;;;;5970448;24;20094;-58
2021/10/18 14:25:33;;;;;;;20.08;7.95;;;;;;;;;;6006832;23;20062;-58
2021/10/18 14:28:00;;;;;;;19.48;8.05;;;;;;;;;;5989394;23;20033;-58
2021/10/18 14:30:30;;;;;;;18.13;8.38;;;;;;;;;;5964745;23;20086;-57
2021/10/18 14:32:57;;;;;;;18.75;8.05;;;;;;;;;;5989225;23;20030;-59
2021/10/18 14:35:24;;;;;;;19.77;9.30;;;;;;;;;;5964443;23;20037;-58
2021/10/18 14:37:50;;;;;;;21.08;8.20;;;;;;;;;;5962659;24;20034;-58
2021/10/18 14:40:17;;;;;;;17.30;8.07;;;;;;;;;;5965575;23;20033;-58
2021/10/18 14:42:44;;;;;;;17.08;8.15;;;;;;;;;;5980407;23;20057;-58
2021/10/18 14:45:10;;;;;;;17.98;8.15;;;;;;;;;;5976144;23;20070;-57
2021/10/18 14:47:40;;;;;;;19.70;8.48;;;;;;;;;;5965538;23;20044;-57
2021/10/18 14:50:08;;;;;;;19.58;8.30;;;;;;;;;;5988273;23;20034;-57
2021/10/18 14:52:35;;;;;;;18.75;7.70;;;;;;;;;;5973121;23;20042;-57
2021/10/18 14:55:02;;;;;;;20.98;8.57;;;;;;;;;;5969551;24;20135;-57
2021/10/18 14:57:28;;;;;;;17.23;8.18;;;;;;;;;;5973703;23;20065;-57
2021/10/18 14:59:55;;;;;;;18.35;8.25;;;;;;;;;;5979530;23;20022;-57
2021/10/18 15:02:21;;;;;;;18.45;9.05;;;;;;;;;;5974748;23;20053;-57
2021/10/18 15:04:49;;;;;;;15.57;7.65;;;;;;;;;;5963115;24;20049;-57
2021/10/18 15:07:18;;;;;;;18.40;8.93;;;;;;;;;;5982708;23;20030;-57
2021/10/18 15:09:44;;;;;;;;;;;;;;;;;;5960209;24;20034;-57
2021/10/18 15:12:11;;;;;;;16.88;8.13;;;;;;;;;;5985026;23;19925;-57
2021/10/18 15:14:37;;;;;;;17.85;8.07;;;;;;;;;;5969229;23;20092;-58
2021/10/18 15:17:08;;;;;;;19.00;8.07;;;;;;;;;;5990303;23;20041;-57
2021/10/18 15:19:34;;;;;;;18.65;8.13;;;;;;;;;;5965592;24;20084;-57
2021/10/18 15:22:01;;;;;;;21.13;7.88;;;;;;;;;;5961352;23;20048;-58
2021/10/18 15:24:29;;;;;;;18.73;8.55;;;;;;;;;;5968680;24;20037;-58
2021/10/18 15:26:55;;;;;;;18.17;8.43;;;;;;;;;;5967685;24;20034;-57
2021/10/18 15:29:22;;;;;;;21.38;8.32;;;;;;;;;;5970014;23;20049;-57
2021/10/18 15:31:49;;;;;;;25.10;8.80;;;;;;;;;;5970214;24;20034;-58
2021/10/18 15:34:15;;;;;;;21.02;8.38;;;;;;;;;;5962665;23;20037;-58
2021/10/18 15:36:45;;;;;;;18.10;7.90;;;;;;;;;;5990083;23;20037;-58
2021/10/18 15:39:12;;;;;;;17.83;8.40;;;;;;;;;;5963841;24;20038;-57
2021/10/18 15:41:40;;;;;;;18.17;8.43;;;;;;;;;;5977237;23;20058;-57
2021/10/18 15:44:07;;;;;;;20.80;8.68;;;;;;;;;;5966060;23;20045;-57